Time;durP1;ratioP1;P1;durP2;ratioP2;P2;SDS_P1;SDS_P2;PMS_P1;PMS_P2;Temp;Humidity;BMP_temperature;BMP_pressure;BME280_temperature;BME280_humidity;BME280_pressure;Samples;Min_cycle;Max_cycle;Signal;HPM_P1;HPM_P2
2024/02/19 00:01:22;;;;;;;3.65;1.90;;;;;;;;;;4994151;28;20038;-80
2024/02/19 00:03:47;;;;;;;4.85;1.80;;;;;;;;;;4997915;28;20483;-80
2024/02/19 00:06:12;;;;;;;3.33;1.50;;;;;;;;;;4998472;28;20035;-80
2024/02/19 00:08:38;;;;;;;3.00;1.57;;;;;;;;;;4999213;28;20261;-80
2024/02/19 00:11:03;;;;;;;3.33;1.80;;;;;;;;;;4998088;28;20786;-80
2024/02/19 00:13:28;;;;;;;3.90;2.10;;;;;;;;;;4999213;28;20269;-80
2024/02/19 00:15:53;;;;;;;2.92;1.70;;;;;;;;;;4995511;28;20049;-79
2024/02/19 00:18:18;;;;;;;3.40;1.50;;;;;;;;;;4995522;28;20427;-79
2024/02/19 00:20:44;;;;;;;3.50;1.88;;;;;;;;;;4993951;28;20411;-79
2024/02/19 00:23:09;;;;;;;2.97;1.40;;;;;;;;;;4993996;28;20073;-79
2024/02/19 00:25:34;;;;;;;4.00;1.80;;;;;;;;;;5000529;28;20022;-79
2024/02/19 00:27:59;;;;;;;2.83;1.20;;;;;;;;;;4993971;28;20133;-79
2024/02/19 00:30:25;;;;;;;2.60;1.30;;;;;;;;;;4988010;28;20026;-79
2024/02/19 00:32:50;;;;;;;3.58;1.50;;;;;;;;;;4995856;28;20030;-79
2024/02/19 00:35:15;;;;;;;3.00;1.33;;;;;;;;;;4994178;28;20399;-79
2024/02/19 00:37:41;;;;;;;2.08;1.05;;;;;;;;;;5008034;28;20387;-79
2024/02/19 00:40:07;;;;;;;2.40;1.38;;;;;;;;;;4995087;28;20108;-79
2024/02/19 00:42:32;;;;;;;2.38;1.10;;;;;;;;;;4995142;28;20034;-79
2024/02/19 00:44:58;;;;;;;1.95;0.93;;;;;;;;;;4996087;28;20506;-79
2024/02/19 00:47:23;;;;;;;2.67;1.30;;;;;;;;;;4994361;28;20277;-79
2024/02/19 00:49:49;;;;;;;3.13;1.33;;;;;;;;;;4999212;28;20058;-79
2024/02/19 00:52:14;;;;;;;2.95;1.40;;;;;;;;;;4993302;28;20057;-79
2024/02/19 00:54:39;;;;;;;3.30;1.10;;;;;;;;;;4994364;28;20550;-79
2024/02/19 00:57:04;;;;;;;2.60;1.38;;;;;;;;;;4995509;28;20062;-79
2024/02/19 00:59:29;;;;;;;3.43;1.30;;;;;;;;;;4994115;28;20026;-79
2024/02/19 01:01:55;;;;;;;2.38;1.13;;;;;;;;;;4991803;28;20293;-79
2024/02/19 01:04:20;;;;;;;2.28;1.02;;;;;;;;;;4997557;28;20024;-79
2024/02/19 01:06:45;;;;;;;2.55;1.10;;;;;;;;;;5000677;28;20034;-79
2024/02/19 01:09:10;;;;;;;3.92;1.25;;;;;;;;;;4997289;28;20030;-79
2024/02/19 01:11:36;;;;;;;2.47;1.05;;;;;;;;;;4997076;28;20034;-79
2024/02/19 01:14:01;;;;;;;2.63;1.02;;;;;;;;;;4997516;28;20041;-79
2024/02/19 01:16:26;;;;;;;1.83;1.02;;;;;;;;;;4997435;28;20767;-79
2024/02/19 01:18:51;;;;;;;2.17;1.10;;;;;;;;;;4997691;28;20049;-79
2024/02/19 01:21:17;;;;;;;2.63;1.20;;;;;;;;;;5000198;28;20669;-79
2024/02/19 01:23:42;;;;;;;2.13;0.90;;;;;;;;;;4996145;28;20056;-79
2024/02/19 01:26:07;;;;;;;2.38;1.00;;;;;;;;;;4998144;28;20506;-79
2024/02/19 01:28:32;;;;;;;1.65;0.70;;;;;;;;;;4995889;28;20026;-79
2024/02/19 01:30:58;;;;;;;2.35;0.88;;;;;;;;;;4997258;28;20030;-79
2024/02/19 01:33:23;;;;;;;2.05;0.90;;;;;;;;;;4998368;28;20034;-79
2024/02/19 01:35:48;;;;;;;2.50;1.40;;;;;;;;;;4995833;28;20069;-79
2024/02/19 01:38:13;;;;;;;2.38;0.98;;;;;;;;;;4997905;28;20785;-79
2024/02/19 01:40:38;;;;;;;2.42;1.05;;;;;;;;;;4998033;28;20030;-79
2024/02/19 01:43:04;;;;;;;2.30;1.10;;;;;;;;;;4996481;28;20116;-79
2024/02/19 01:45:29;;;;;;;2.58;1.08;;;;;;;;;;4997349;28;20784;-79
2024/02/19 01:47:55;;;;;;;1.52;0.70;;;;;;;;;;4998227;28;20046;-79
2024/02/19 01:50:21;;;;;;;1.38;0.80;;;;;;;;;;4997348;28;20042;-79
2024/02/19 01:52:47;;;;;;;2.20;0.70;;;;;;;;;;4996491;28;20043;-79
2024/02/19 01:55:12;;;;;;;1.75;0.80;;;;;;;;;;4997141;28;20077;-79
2024/02/19 01:57:38;;;;;;;3.28;0.90;;;;;;;;;;5006817;28;20035;-79
2024/02/19 02:00:05;;;;;;;2.97;0.70;;;;;;;;;;4997333;28;20038;-80
2024/02/19 02:02:36;;;;;;;0.82;0.40;;;;;;;;;;4996650;28;20065;-80
2024/02/19 02:05:02;;;;;;;1.70;0.75;;;;;;;;;;4999258;28;20037;-80
2024/02/19 02:07:28;;;;;;;1.85;0.73;;;;;;;;;;5001633;28;20027;-80
2024/02/19 02:09:54;;;;;;;2.13;0.52;;;;;;;;;;5000773;28;20019;-79
2024/02/19 02:12:19;;;;;;;2.00;0.57;;;;;;;;;;4998672;28;20523;-80
2024/02/19 02:14:44;;;;;;;1.30;0.52;;;;;;;;;;5000455;28;20070;-80
2024/02/19 02:17:09;;;;;;;1.63;0.80;;;;;;;;;;4998353;28;20038;-79
2024/02/19 02:19:35;;;;;;;0.70;0.50;;;;;;;;;;5009725;28;20046;-80
2024/02/19 02:22:01;;;;;;;1.58;0.60;;;;;;;;;;4997660;28;20081;-80
2024/02/19 02:24:26;;;;;;;1.40;0.32;;;;;;;;;;4995503;28;20026;-78
2024/02/19 02:26:51;;;;;;;1.27;0.52;;;;;;;;;;5005064;28;20030;-79
2024/02/19 02:29:16;;;;;;;1.58;0.70;;;;;;;;;;4992633;28;20027;-79
2024/02/19 02:31:41;;;;;;;3.05;0.60;;;;;;;;;;4995870;28;20174;-79
2024/02/19 02:34:06;;;;;;;1.17;0.50;;;;;;;;;;4996242;28;20041;-79
2024/02/19 02:36:32;;;;;;;1.20;0.50;;;;;;;;;;4996991;28;20750;-79
2024/02/19 02:38:57;;;;;;;1.67;0.40;;;;;;;;;;4995253;28;20121;-79
2024/02/19 02:41:22;;;;;;;0.90;0.40;;;;;;;;;;4996090;28;20045;-79
2024/02/19 02:43:47;;;;;;;0.60;0.30;;;;;;;;;;4996082;28;20285;-79
2024/02/19 02:46:12;;;;;;;1.05;0.38;;;;;;;;;;4997923;28;20385;-79
2024/02/19 02:48:37;;;;;;;0.80;0.30;;;;;;;;;;4998134;28;20034;-79
2024/02/19 02:51:03;;;;;;;1.33;0.40;;;;;;;;;;4998726;28;20637;-80
2024/02/19 02:53:28;;;;;;;0.65;0.30;;;;;;;;;;4999458;28;20030;-79
2024/02/19 02:55:53;;;;;;;0.60;0.30;;;;;;;;;;4996257;28;20483;-79
2024/02/19 02:58:18;;;;;;;0.70;0.30;;;;;;;;;;4997626;28;20053;-79
2024/02/19 03:00:43;;;;;;;0.43;0.30;;;;;;;;;;4994973;28;20050;-79
2024/02/19 03:03:09;;;;;;;2.20;0.40;;;;;;;;;;4994429;28;20376;-78
2024/02/19 03:05:35;;;;;;;0.90;0.43;;;;;;;;;;4993838;28;20455;-78
2024/02/19 03:08:00;;;;;;;0.40;0.20;;;;;;;;;;4992142;28;20072;-78
2024/02/19 03:10:26;;;;;;;1.90;0.30;;;;;;;;;;4998361;28;20113;-79
2024/02/19 03:12:51;;;;;;;0.63;0.30;;;;;;;;;;4994058;28;20038;-79
2024/02/19 03:15:16;;;;;;;0.93;0.30;;;;;;;;;;4995359;28;20026;-79
2024/02/19 03:17:41;;;;;;;0.68;0.28;;;;;;;;;;4995219;28;20034;-79
2024/02/19 03:20:12;;;;;;;0.68;0.30;;;;;;;;;;4994843;28;20137;-79
2024/02/19 03:22:38;;;;;;;1.53;0.23;;;;;;;;;;4993194;28;20030;-79
2024/02/19 03:25:04;;;;;;;0.90;0.32;;;;;;;;;;4997574;28;20332;-79
2024/02/19 03:27:29;;;;;;;0.70;0.30;;;;;;;;;;4992752;28;21767;-79
2024/02/19 03:29:55;;;;;;;0.77;0.27;;;;;;;;;;4993055;28;20038;-79
2024/02/19 03:32:20;;;;;;;0.52;0.10;;;;;;;;;;4994123;28;20296;-79
2024/02/19 03:34:45;;;;;;;1.27;0.30;;;;;;;;;;4996504;28;20030;-79
2024/02/19 03:37:12;;;;;;;0.60;0.30;;;;;;;;;;4995079;28;20062;-78
2024/02/19 03:39:37;;;;;;;1.25;0.20;;;;;;;;;;4995018;28;20395;-79
2024/02/19 03:42:02;;;;;;;1.80;0.77;;;;;;;;;;4992994;28;20034;-79
2024/02/19 03:44:27;;;;;;;0.50;0.40;;;;;;;;;;4995288;28;20037;-79
2024/02/19 03:46:53;;;;;;;0.60;0.30;;;;;;;;;;4995448;28;20085;-78
2024/02/19 03:49:18;;;;;;;0.57;0.28;;;;;;;;;;4994870;28;20491;-79
2024/02/19 03:51:43;;;;;;;0.75;0.30;;;;;;;;;;4994567;28;20037;-78
2024/02/19 03:54:08;;;;;;;0.85;0.35;;;;;;;;;;4994509;28;20052;-79
2024/02/19 03:56:34;;;;;;;0.43;0.20;;;;;;;;;;4994867;28;20026;-79
2024/02/19 03:58:59;;;;;;;1.88;0.35;;;;;;;;;;5002955;28;20511;-79
2024/02/19 04:01:24;;;;;;;1.35;0.57;;;;;;;;;;4993132;28;20078;-78
2024/02/19 04:03:49;;;;;;;1.60;0.27;;;;;;;;;;5004107;28;20026;-79
2024/02/19 04:06:14;;;;;;;1.98;0.82;;;;;;;;;;4993031;28;20363;-79
2024/02/19 04:08:40;;;;;;;1.40;0.50;;;;;;;;;;4992476;28;20106;-79
2024/02/19 04:11:05;;;;;;;2.33;0.40;;;;;;;;;;4990634;28;20023;-79
2024/02/19 04:13:30;;;;;;;0.73;0.40;;;;;;;;;;4991332;28;20034;-80
2024/02/19 04:15:55;;;;;;;1.23;0.45;;;;;;;;;;4992481;28;20398;-80
2024/02/19 04:18:20;;;;;;;0.80;0.20;;;;;;;;;;4990097;28;20025;-80
2024/02/19 04:20:46;;;;;;;2.42;0.32;;;;;;;;;;4991770;28;20503;-81
2024/02/19 04:23:11;;;;;;;0.60;0.20;;;;;;;;;;4993424;28;20034;-82
2024/02/19 04:25:36;;;;;;;0.93;0.30;;;;;;;;;;4993406;28;20022;-80
2024/02/19 04:28:01;;;;;;;2.40;0.30;;;;;;;;;;4992026;28;20042;-81
2024/02/19 04:30:26;;;;;;;0.82;0.40;;;;;;;;;;4991255;28;20038;-79
2024/02/19 04:32:52;;;;;;;1.30;0.40;;;;;;;;;;4992336;28;20113;-81
2024/02/19 04:35:18;;;;;;;0.65;0.30;;;;;;;;;;4990637;28;20041;-81
2024/02/19 04:37:43;;;;;;;0.82;0.30;;;;;;;;;;4992227;28;20038;-82
2024/02/19 04:40:12;;;;;;;2.47;0.50;;;;;;;;;;4994731;28;20038;-81
2024/02/19 04:42:37;;;;;;;3.60;0.43;;;;;;;;;;4994447;28;20042;-81
2024/02/19 04:45:02;;;;;;;0.80;0.40;;;;;;;;;;4996137;28;20026;-81
2024/02/19 04:47:27;;;;;;;1.15;0.50;;;;;;;;;;4994922;28;20030;-81
2024/02/19 04:49:53;;;;;;;0.73;0.30;;;;;;;;;;4999680;28;20034;-81
2024/02/19 04:52:18;;;;;;;0.57;0.40;;;;;;;;;;4994273;28;20085;-80
2024/02/19 04:54:43;;;;;;;0.65;0.38;;;;;;;;;;4995430;28;20586;-81
2024/02/19 04:57:08;;;;;;;1.45;0.70;;;;;;;;;;4992555;28;20054;-81
2024/02/19 04:59:33;;;;;;;2.67;0.80;;;;;;;;;;4994625;28;20418;-81
2024/02/19 05:01:59;;;;;;;1.73;1.00;;;;;;;;;;4994855;28;20054;-81
2024/02/19 05:04:26;;;;;;;1.75;0.50;;;;;;;;;;4995039;28;20461;-81
2024/02/19 05:06:51;;;;;;;1.40;0.75;;;;;;;;;;4995304;28;20028;-80
2024/02/19 05:09:16;;;;;;;2.03;0.70;;;;;;;;;;4994278;28;20105;-81
2024/02/19 05:11:41;;;;;;;2.28;0.60;;;;;;;;;;4994346;28;20483;-80
2024/02/19 05:14:07;;;;;;;2.38;1.00;;;;;;;;;;4994913;28;20038;-81
2024/02/19 05:16:32;;;;;;;1.50;0.80;;;;;;;;;;4994371;28;20037;-81
2024/02/19 05:18:59;;;;;;;2.22;0.85;;;;;;;;;;4995925;28;20142;-80
2024/02/19 05:21:25;;;;;;;1.42;0.60;;;;;;;;;;4995781;28;20045;-80
2024/02/19 05:23:50;;;;;;;1.73;0.90;;;;;;;;;;4993927;28;20034;-78
2024/02/19 05:26:22;;;;;;;1.55;0.73;;;;;;;;;;4994111;28;20053;-77
2024/02/19 05:28:47;;;;;;;;;;;;;;;;;;4994628;28;20037;-77
2024/02/19 05:31:12;;;;;;;4.40;0.85;;;;;;;;;;4993470;28;19910;-79
2024/02/19 05:33:38;;;;;;;1.50;0.70;;;;;;;;;;4994526;28;20034;-79
2024/02/19 05:36:04;;;;;;;2.00;0.80;;;;;;;;;;4994854;28;20030;-79
2024/02/19 05:38:29;;;;;;;2.80;0.98;;;;;;;;;;4994654;28;20145;-78
2024/02/19 05:40:54;;;;;;;1.80;0.82;;;;;;;;;;4994090;28;20402;-78
2024/02/19 05:43:20;;;;;;;1.92;0.88;;;;;;;;;;4993592;28;20030;-79
2024/02/19 05:45:45;;;;;;;3.38;0.70;;;;;;;;;;4993807;28;20383;-80
2024/02/19 05:48:10;;;;;;;2.05;0.80;;;;;;;;;;4993843;28;20035;-79
2024/02/19 05:50:35;;;;;;;2.88;1.27;;;;;;;;;;4992065;28;20030;-78
2024/02/19 05:53:01;;;;;;;1.30;0.70;;;;;;;;;;4990118;28;20376;-80
2024/02/19 05:55:26;;;;;;;1.23;0.60;;;;;;;;;;4991865;28;20097;-80
2024/02/19 05:57:52;;;;;;;4.38;0.63;;;;;;;;;;4993063;28;20042;-78
2024/02/19 06:00:17;;;;;;;0.90;0.50;;;;;;;;;;4992741;28;20129;-80
2024/02/19 06:02:42;;;;;;;2.05;0.70;;;;;;;;;;4993281;28;20038;-80
2024/02/19 06:05:08;;;;;;;1.05;0.40;;;;;;;;;;4992258;28;20045;-80
2024/02/19 06:07:33;;;;;;;0.70;0.30;;;;;;;;;;4991266;28;20144;-79
2024/02/19 06:09:59;;;;;;;1.23;0.57;;;;;;;;;;4991023;28;20030;-80
2024/02/19 06:12:24;;;;;;;2.80;0.52;;;;;;;;;;4991885;28;20069;-79
2024/02/19 06:14:49;;;;;;;0.95;0.47;;;;;;;;;;4992303;28;20108;-79
2024/02/19 06:17:15;;;;;;;1.25;0.50;;;;;;;;;;4996216;28;20088;-79
2024/02/19 06:19:40;;;;;;;1.52;0.80;;;;;;;;;;4987910;28;20027;-80
2024/02/19 06:22:05;;;;;;;1.48;0.77;;;;;;;;;;4992554;28;20033;-80
2024/02/19 06:24:31;;;;;;;2.25;0.85;;;;;;;;;;4991829;28;20027;-80
2024/02/19 06:26:56;;;;;;;1.80;0.80;;;;;;;;;;4999200;28;20041;-79
2024/02/19 06:29:21;;;;;;;1.95;0.90;;;;;;;;;;4990062;28;20019;-79
2024/02/19 06:31:49;;;;;;;2.22;0.80;;;;;;;;;;4992336;28;20561;-79
2024/02/19 06:34:15;;;;;;;1.98;0.90;;;;;;;;;;4990355;28;20038;-80
2024/02/19 06:36:40;;;;;;;2.10;0.85;;;;;;;;;;4993003;28;20038;-78
2024/02/19 06:39:06;;;;;;;1.40;0.80;;;;;;;;;;4992803;28;20038;-79
2024/02/19 06:41:32;;;;;;;2.00;1.13;;;;;;;;;;4991760;28;20035;-79
2024/02/19 06:43:57;;;;;;;1.60;0.60;;;;;;;;;;4992475;28;20049;-80
2024/02/19 06:46:22;;;;;;;4.68;1.80;;;;;;;;;;4991393;28;20042;-79
2024/02/19 06:48:47;;;;;;;3.70;1.58;;;;;;;;;;5006669;28;20118;-79
2024/02/19 06:51:12;;;;;;;4.15;1.58;;;;;;;;;;4992114;28;20475;-79
2024/02/19 06:53:38;;;;;;;3.33;1.17;;;;;;;;;;4992354;28;20034;-79
2024/02/19 06:56:03;;;;;;;4.72;1.10;;;;;;;;;;4992409;28;20091;-79
2024/02/19 06:58:28;;;;;;;2.53;1.10;;;;;;;;;;4991755;28;20407;-79
2024/02/19 07:00:53;;;;;;;1.77;0.77;;;;;;;;;;4993267;28;20141;-78
2024/02/19 07:03:19;;;;;;;3.03;0.85;;;;;;;;;;4990508;28;20045;-79
2024/02/19 07:05:44;;;;;;;3.95;1.52;;;;;;;;;;4992254;28;20101;-79
2024/02/19 07:08:11;;;;;;;3.05;1.10;;;;;;;;;;4992376;28;20105;-78
2024/02/19 07:10:37;;;;;;;1.90;0.80;;;;;;;;;;4991330;28;20026;-78
2024/02/19 07:13:02;;;;;;;1.65;0.60;;;;;;;;;;4992361;28;20424;-78
2024/02/19 07:15:27;;;;;;;1.00;0.43;;;;;;;;;;4990522;28;20050;-78
2024/02/19 07:17:52;;;;;;;2.65;0.73;;;;;;;;;;4994376;28;20030;-78
2024/02/19 07:20:17;;;;;;;1.30;0.63;;;;;;;;;;4993214;28;20077;-78
2024/02/19 07:22:42;;;;;;;2.03;0.77;;;;;;;;;;4992100;28;20479;-78
2024/02/19 07:25:08;;;;;;;1.17;0.40;;;;;;;;;;4990380;28;20053;-78
2024/02/19 07:27:33;;;;;;;1.02;0.45;;;;;;;;;;4991348;28;20034;-78
2024/02/19 07:29:58;;;;;;;1.38;0.60;;;;;;;;;;4991977;28;20026;-78
2024/02/19 07:32:23;;;;;;;1.23;0.50;;;;;;;;;;4988291;28;20038;-78
2024/02/19 07:34:48;;;;;;;1.15;0.60;;;;;;;;;;4992099;28;20030;-78
2024/02/19 07:37:14;;;;;;;2.53;0.82;;;;;;;;;;4991749;28;20561;-78
2024/02/19 07:39:41;;;;;;;1.73;0.63;;;;;;;;;;4991256;28;20130;-78
2024/02/19 07:42:07;;;;;;;2.80;0.75;;;;;;;;;;4991103;28;20031;-78
2024/02/19 07:44:32;;;;;;;1.85;0.73;;;;;;;;;;4990588;28;20517;-78
2024/02/19 07:46:57;;;;;;;3.00;0.90;;;;;;;;;;4991647;28;20088;-78
2024/02/19 07:49:22;;;;;;;2.15;0.82;;;;;;;;;;4991256;28;20038;-78
2024/02/19 07:51:47;;;;;;;1.55;0.82;;;;;;;;;;4990863;28;20081;-78
2024/02/19 07:54:13;;;;;;;2.13;0.77;;;;;;;;;;4991404;28;20041;-77
2024/02/19 07:56:38;;;;;;;3.40;1.00;;;;;;;;;;4991491;28;20033;-77
2024/02/19 07:59:03;;;;;;;4.45;1.02;;;;;;;;;;4991037;28;20562;-77
2024/02/19 08:01:28;;;;;;;8.77;1.67;;;;;;;;;;4990706;28;20042;-77
2024/02/19 08:03:53;;;;;;;3.33;1.42;;;;;;;;;;4989942;28;20462;-77
2024/02/19 08:06:19;;;;;;;3.45;1.80;;;;;;;;;;4989881;28;20392;-77
2024/02/19 08:08:44;;;;;;;5.03;1.50;;;;;;;;;;4990908;28;20026;-78
2024/02/19 08:11:09;;;;;;;3.13;1.40;;;;;;;;;;4991645;28;20117;-77
2024/02/19 08:13:35;;;;;;;2.83;1.35;;;;;;;;;;4990471;28;20080;-77
2024/02/19 08:16:00;;;;;;;2.40;1.23;;;;;;;;;;4989518;28;20042;-77
2024/02/19 08:18:26;;;;;;;1.77;0.90;;;;;;;;;;4990689;28;20038;-77
2024/02/19 08:20:51;;;;;;;3.15;1.60;;;;;;;;;;4987402;28;20434;-77
2024/02/19 08:23:17;;;;;;;2.95;1.00;;;;;;;;;;4989229;28;20474;-78
2024/02/19 08:25:43;;;;;;;3.28;0.90;;;;;;;;;;4990482;28;20041;-77
2024/02/19 08:28:08;;;;;;;2.28;0.80;;;;;;;;;;4990767;28;20030;-77
2024/02/19 08:30:33;;;;;;;3.25;0.75;;;;;;;;;;4990286;28;20458;-77
2024/02/19 08:32:58;;;;;;;1.88;0.60;;;;;;;;;;4991085;28;20042;-78
2024/02/19 08:35:23;;;;;;;3.05;0.60;;;;;;;;;;4990441;28;20030;-77
2024/02/19 08:37:49;;;;;;;2.15;0.85;;;;;;;;;;4990798;28;20084;-77
2024/02/19 08:40:14;;;;;;;2.20;0.70;;;;;;;;;;4990265;28;20038;-77
2024/02/19 08:42:39;;;;;;;1.67;0.68;;;;;;;;;;4990557;28;20498;-77
2024/02/19 08:45:05;;;;;;;1.98;0.52;;;;;;;;;;4990632;28;20113;-77
2024/02/19 08:47:30;;;;;;;1.38;0.50;;;;;;;;;;4990497;28;20499;-77
2024/02/19 08:49:55;;;;;;;2.22;1.13;;;;;;;;;;4990589;28;20035;-77
2024/02/19 08:52:21;;;;;;;1.85;0.47;;;;;;;;;;4992559;28;20046;-78
2024/02/19 08:54:46;;;;;;;1.20;0.40;;;;;;;;;;4992199;28;20033;-78
2024/02/19 08:57:12;;;;;;;1.67;0.60;;;;;;;;;;4989882;28;20518;-78
2024/02/19 08:59:45;;;;;;;1.33;0.30;;;;;;;;;;4989737;28;20033;-77
2024/02/19 09:02:11;;;;;;;3.35;0.77;;;;;;;;;;4993686;28;20038;-77
2024/02/19 09:04:36;;;;;;;1.77;0.47;;;;;;;;;;4990268;28;20049;-77
2024/02/19 09:07:02;;;;;;;3.33;0.50;;;;;;;;;;4990408;28;20592;-78
2024/02/19 09:09:27;;;;;;;1.33;0.40;;;;;;;;;;4995830;28;20023;-78
2024/02/19 09:11:52;;;;;;;2.72;0.70;;;;;;;;;;4984320;28;20088;-78
2024/02/19 09:14:17;;;;;;;1.95;0.50;;;;;;;;;;4989451;28;20042;-79
2024/02/19 09:16:42;;;;;;;2.22;0.38;;;;;;;;;;4998997;28;20041;-78
2024/02/19 09:19:08;;;;;;;2.75;0.30;;;;;;;;;;4990401;28;20096;-78
2024/02/19 09:21:33;;;;;;;2.72;0.30;;;;;;;;;;4988893;28;20066;-78
2024/02/19 09:23:59;;;;;;;2.55;0.50;;;;;;;;;;4996560;28;20038;-78
2024/02/19 09:26:24;;;;;;;4.43;0.73;;;;;;;;;;4991415;28;20040;-77
2024/02/19 09:28:49;;;;;;;3.47;0.68;;;;;;;;;;4993919;28;20045;-77
2024/02/19 09:31:15;;;;;;;2.78;0.60;;;;;;;;;;4993351;28;20030;-77
2024/02/19 09:33:40;;;;;;;3.10;0.88;;;;;;;;;;4993355;28;20056;-78
2024/02/19 09:36:07;;;;;;;2.22;0.50;;;;;;;;;;4993751;28;20039;-78
2024/02/19 09:38:32;;;;;;;1.27;0.30;;;;;;;;;;4992189;28;20030;-78
2024/02/19 09:40:57;;;;;;;1.65;0.35;;;;;;;;;;4996032;28;20057;-78
2024/02/19 09:43:24;;;;;;;1.05;0.30;;;;;;;;;;4993468;28;20758;-78
2024/02/19 09:45:49;;;;;;;1.15;0.32;;;;;;;;;;4993554;28;20026;-77
2024/02/19 09:48:17;;;;;;;1.05;0.20;;;;;;;;;;4993769;28;20209;-77
2024/02/19 09:50:43;;;;;;;2.40;0.55;;;;;;;;;;4992986;28;20037;-77
2024/02/19 09:53:15;;;;;;;3.08;0.57;;;;;;;;;;4992817;28;20109;-78
2024/02/19 09:55:41;;;;;;;3.20;1.08;;;;;;;;;;4998619;28;20065;-77
2024/02/19 09:58:06;;;;;;;3.22;0.77;;;;;;;;;;4993323;28;20039;-77
2024/02/19 10:00:32;;;;;;;2.30;0.65;;;;;;;;;;4987641;28;20044;-77
2024/02/19 10:02:57;;;;;;;2.15;0.70;;;;;;;;;;4993065;28;20034;-77
2024/02/19 10:05:23;;;;;;;1.73;0.77;;;;;;;;;;4993875;28;20034;-77
2024/02/19 10:07:48;;;;;;;2.60;0.88;;;;;;;;;;4993245;28;20406;-77
2024/02/19 10:10:13;;;;;;;1.60;0.47;;;;;;;;;;4992679;28;20053;-79
2024/02/19 10:12:39;;;;;;;0.50;0.20;;;;;;;;;;4992846;28;20038;-77
2024/02/19 10:15:04;;;;;;;1.35;0.52;;;;;;;;;;4995439;28;20058;-77
2024/02/19 10:17:30;;;;;;;1.05;0.40;;;;;;;;;;4992155;28;20062;-77
2024/02/19 10:20:05;;;;;;;2.10;0.80;;;;;;;;;;4992844;28;20031;-78
2024/02/19 10:22:30;;;;;;;3.00;0.80;;;;;;;;;;4990544;28;20494;-77
2024/02/19 10:24:55;;;;;;;2.80;0.80;;;;;;;;;;4991395;28;20053;-77
2024/02/19 10:27:23;;;;;;;2.33;0.82;;;;;;;;;;4983660;28;20027;-78
2024/02/19 10:29:48;;;;;;;2.03;0.50;;;;;;;;;;4988981;28;20521;-77
2024/02/19 10:32:13;;;;;;;1.70;0.55;;;;;;;;;;4992387;28;20038;-77
2024/02/19 10:34:38;;;;;;;2.08;0.45;;;;;;;;;;4992179;28;20040;-77
2024/02/19 10:37:05;;;;;;;2.72;0.63;;;;;;;;;;4992497;28;20042;-77
2024/02/19 10:39:31;;;;;;;2.67;1.10;;;;;;;;;;4991016;28;20596;-77
2024/02/19 10:41:57;;;;;;;1.27;0.57;;;;;;;;;;4991991;28;20403;-77
2024/02/19 10:44:23;;;;;;;3.50;1.20;;;;;;;;;;4992054;28;20026;-78
2024/02/19 10:46:48;;;;;;;2.65;0.88;;;;;;;;;;4992554;28;20026;-77
2024/02/19 10:49:19;;;;;;;3.38;1.10;;;;;;;;;;4992200;28;20050;-77
2024/02/19 10:51:44;;;;;;;3.03;1.23;;;;;;;;;;4990992;28;20532;-77
2024/02/19 10:54:10;;;;;;;2.55;1.00;;;;;;;;;;4992222;28;20041;-77
2024/02/19 10:56:36;;;;;;;1.92;0.90;;;;;;;;;;4991906;28;20034;-77
2024/02/19 10:59:01;;;;;;;3.33;1.27;;;;;;;;;;4991879;28;20045;-78
2024/02/19 11:01:46;;;;;;;2.33;1.20;;;;;;;;;;4991823;28;20117;-78
2024/02/19 11:04:15;;;;;;;3.05;1.30;;;;;;;;;;4992081;28;20042;-77
2024/02/19 11:06:44;;;;;;;1.95;1.10;;;;;;;;;;4995785;28;20390;-77
2024/02/19 11:09:13;;;;;;;2.80;1.33;;;;;;;;;;4990565;28;20034;-77
2024/02/19 11:11:47;;;;;;;2.85;1.08;;;;;;;;;;4992376;28;20518;-77
2024/02/19 11:14:14;;;;;;;4.82;1.45;;;;;;;;;;4999941;28;20220;-77
2024/02/19 11:16:39;;;;;;;1.75;0.80;;;;;;;;;;4993402;28;20038;-78
2024/02/19 11:19:04;;;;;;;1.30;0.70;;;;;;;;;;4992527;28;20403;-78
2024/02/19 11:21:29;;;;;;;1.23;0.40;;;;;;;;;;4991323;28;20402;-78
2024/02/19 11:23:55;;;;;;;1.52;0.80;;;;;;;;;;4990554;28;20517;-78
2024/02/19 11:26:20;;;;;;;2.55;0.50;;;;;;;;;;4991941;28;20029;-79
2024/02/19 11:28:46;;;;;;;1.92;0.90;;;;;;;;;;4991927;28;20426;-78
2024/02/19 11:31:13;;;;;;;2.00;0.80;;;;;;;;;;4991710;28;20034;-78
2024/02/19 11:33:39;;;;;;;1.65;0.50;;;;;;;;;;4994697;28;20055;-78
2024/02/19 11:36:04;;;;;;;2.72;0.38;;;;;;;;;;4991944;28;20048;-78
2024/02/19 11:38:31;;;;;;;1.85;0.50;;;;;;;;;;4991846;28;20053;-78
2024/02/19 11:40:57;;;;;;;0.90;0.22;;;;;;;;;;4991108;28;20231;-78
2024/02/19 11:43:23;;;;;;;1.13;0.30;;;;;;;;;;4991491;28;20049;-78
2024/02/19 11:45:51;;;;;;;1.23;0.40;;;;;;;;;;4991209;28;20026;-77
2024/02/19 11:48:16;;;;;;;0.70;0.40;;;;;;;;;;4990917;28;20030;-77
2024/02/19 11:50:44;;;;;;;1.63;0.65;;;;;;;;;;4990747;28;20100;-78
2024/02/19 11:53:09;;;;;;;1.23;0.43;;;;;;;;;;4991506;28;20033;-78
2024/02/19 11:55:35;;;;;;;1.27;0.30;;;;;;;;;;4990480;28;20026;-78
2024/02/19 11:58:00;;;;;;;0.20;0.13;;;;;;;;;;4991160;28;20411;-77
2024/02/19 12:00:25;;;;;;;0.45;0.22;;;;;;;;;;4990436;28;20415;-78
2024/02/19 12:02:55;;;;;;;0.85;0.17;;;;;;;;;;4991298;28;20038;-78
2024/02/19 12:05:20;;;;;;;0.75;0.30;;;;;;;;;;4989814;28;20125;-79
2024/02/19 12:07:46;;;;;;;1.35;0.20;;;;;;;;;;4991410;28;20105;-78
2024/02/19 12:10:12;;;;;;;2.00;0.20;;;;;;;;;;4991076;28;20058;-78
2024/02/19 12:12:38;;;;;;;1.02;0.40;;;;;;;;;;4984721;28;20034;-79
2024/02/19 12:15:15;;;;;;;3.30;0.80;;;;;;;;;;4991179;28;20157;-77
2024/02/19 12:17:40;;;;;;;0.70;0.40;;;;;;;;;;4993094;28;20042;-78
2024/02/19 12:20:07;;;;;;;1.75;0.63;;;;;;;;;;4991317;28;20045;-79
2024/02/19 12:22:32;;;;;;;2.03;0.50;;;;;;;;;;4990772;28;20038;-78
2024/02/19 12:24:58;;;;;;;2.00;0.73;;;;;;;;;;4991064;28;20030;-78
2024/02/19 12:27:23;;;;;;;1.58;0.82;;;;;;;;;;4990974;28;20109;-78
2024/02/19 12:29:52;;;;;;;1.55;0.77;;;;;;;;;;5003804;28;20499;-78
2024/02/19 12:32:17;;;;;;;1.42;0.88;;;;;;;;;;4988105;28;20125;-78
2024/02/19 12:34:44;;;;;;;1.88;1.05;;;;;;;;;;4990869;28;20054;-78
2024/02/19 12:37:09;;;;;;;2.58;1.42;;;;;;;;;;4991695;28;20038;-78
2024/02/19 12:39:34;;;;;;;2.47;1.40;;;;;;;;;;4990756;28;20049;-78
2024/02/19 12:41:59;;;;;;;2.30;1.40;;;;;;;;;;4990686;28;20129;-77
2024/02/19 12:44:24;;;;;;;4.35;2.20;;;;;;;;;;4990564;28;20030;-78
2024/02/19 12:46:50;;;;;;;3.25;1.83;;;;;;;;;;4991655;28;20022;-78
2024/02/19 12:49:16;;;;;;;2.42;1.60;;;;;;;;;;4991393;28;20093;-78
2024/02/19 12:51:41;;;;;;;2.95;1.10;;;;;;;;;;4991043;28;20038;-78
2024/02/19 12:54:07;;;;;;;1.55;1.00;;;;;;;;;;4991364;28;20814;-78
2024/02/19 12:56:32;;;;;;;2.38;1.13;;;;;;;;;;4989578;28;20030;-78
2024/02/19 12:58:57;;;;;;;1.88;0.95;;;;;;;;;;4990870;28;20506;-78
2024/02/19 13:01:22;;;;;;;1.83;1.08;;;;;;;;;;4993762;28;20130;-78
2024/02/19 13:03:48;;;;;;;1.95;0.90;;;;;;;;;;4998741;28;20407;-77
2024/02/19 13:06:14;;;;;;;1.90;1.02;;;;;;;;;;4994959;28;20055;-78
2024/02/19 13:08:40;;;;;;;1.95;1.00;;;;;;;;;;4993055;28;20293;-78
2024/02/19 13:11:07;;;;;;;2.28;1.05;;;;;;;;;;4993998;28;20491;-78
2024/02/19 13:13:32;;;;;;;1.60;1.00;;;;;;;;;;4996998;28;20077;-78
2024/02/19 13:15:57;;;;;;;4.15;1.00;;;;;;;;;;4994269;28;20057;-78
2024/02/19 13:18:23;;;;;;;2.38;1.40;;;;;;;;;;4993444;28;20406;-78
2024/02/19 13:20:48;;;;;;;1.88;0.90;;;;;;;;;;4994503;28;20026;-77
2024/02/19 13:23:14;;;;;;;2.20;1.00;;;;;;;;;;4994193;28;20072;-78
2024/02/19 13:25:39;;;;;;;3.53;1.00;;;;;;;;;;4992150;28;20049;-77
2024/02/19 13:28:06;;;;;;;1.63;0.80;;;;;;;;;;4993574;28;20109;-77
2024/02/19 13:30:31;;;;;;;4.22;0.80;;;;;;;;;;4993164;28;20125;-78
2024/02/19 13:32:57;;;;;;;1.30;0.57;;;;;;;;;;4995362;28;20443;-77
2024/02/19 13:35:22;;;;;;;2.00;0.75;;;;;;;;;;4993359;28;20038;-78
2024/02/19 13:37:50;;;;;;;1.88;0.90;;;;;;;;;;4993745;28;20399;-77
2024/02/19 13:40:15;;;;;;;3.75;0.75;;;;;;;;;;4994914;28;20376;-78
2024/02/19 13:42:40;;;;;;;3.00;1.13;;;;;;;;;;4994155;28;20093;-77
2024/02/19 13:45:09;;;;;;;1.52;0.68;;;;;;;;;;4993333;28;20026;-77
2024/02/19 13:47:35;;;;;;;3.58;1.52;;;;;;;;;;4993270;28;20045;-78
2024/02/19 13:50:00;;;;;;;2.20;0.80;;;;;;;;;;4993360;28;20700;-77
2024/02/19 13:52:25;;;;;;;0.85;0.50;;;;;;;;;;4993636;28;20073;-77
2024/02/19 13:54:50;;;;;;;1.52;0.70;;;;;;;;;;4992906;28;20411;-77
2024/02/19 13:57:16;;;;;;;2.58;0.80;;;;;;;;;;4995680;28;20034;-77
2024/02/19 13:59:41;;;;;;;2.45;0.73;;;;;;;;;;4992969;28;20034;-77
2024/02/19 14:02:06;;;;;;;2.20;1.20;;;;;;;;;;4992857;28;20034;-77
2024/02/19 14:04:31;;;;;;;3.88;1.58;;;;;;;;;;4993124;28;20069;-78
2024/02/19 14:06:56;;;;;;;2.90;1.35;;;;;;;;;;4993604;28;20034;-77
2024/02/19 14:09:21;;;;;;;4.07;1.45;;;;;;;;;;4991103;28;20038;-77
2024/02/19 14:11:47;;;;;;;3.55;1.58;;;;;;;;;;4992783;28;20034;-77
2024/02/19 14:14:12;;;;;;;3.05;1.50;;;;;;;;;;4993619;28;20045;-78
2024/02/19 14:16:37;;;;;;;4.20;1.98;;;;;;;;;;4994681;28;20026;-77
2024/02/19 14:19:03;;;;;;;5.25;2.10;;;;;;;;;;4993417;28;20092;-77
2024/02/19 14:21:28;;;;;;;5.30;1.48;;;;;;;;;;4982203;28;20058;-77
2024/02/19 14:23:54;;;;;;;2.65;1.40;;;;;;;;;;4988906;28;20112;-77
2024/02/19 14:26:23;;;;;;;4.20;1.70;;;;;;;;;;4993269;28;20438;-77
2024/02/19 14:28:48;;;;;;;3.38;1.63;;;;;;;;;;4992719;28;20034;-77
2024/02/19 14:31:15;;;;;;;6.43;2.55;;;;;;;;;;4991392;28;20463;-77
2024/02/19 14:33:40;;;;;;;3.78;1.90;;;;;;;;;;4990811;28;20567;-77